sensor_id;sensor_type;location;lat;lon;timestamp;pressure;altitude;pressure_sealevel;temperature;humidity
21276;BME280;36472;52.170;20.884;2023-09-07T00:01:07;101405.38;;;17.19;85.54
21276;BME280;36472;52.170;20.884;2023-09-07T00:03:37;101401.16;;;17.17;85.67
21276;BME280;36472;52.170;20.884;2023-09-07T00:06:11;101402.44;;;17.11;85.58
21276;BME280;36472;52.170;20.884;2023-09-07T00:08:40;101417.22;;;17.15;85.59
21276;BME280;36472;52.170;20.884;2023-09-07T00:11:09;101403.19;;;17.13;85.26
21276;BME280;36472;52.170;20.884;2023-09-07T00:13:38;101401.97;;;17.06;85.52
21276;BME280;36472;52.170;20.884;2023-09-07T00:16:07;101406.78;;;17.01;85.72
21276;BME280;36472;52.170;20.884;2023-09-07T00:18:37;101409.44;;;17.01;86.02
21276;BME280;36472;52.170;20.884;2023-09-07T00:21:06;101406.06;;;16.99;86.27
21276;BME280;36472;52.170;20.884;2023-09-07T00:23:36;101406.41;;;16.94;86.49
21276;BME280;36472;52.170;20.884;2023-09-07T00:26:05;101403.03;;;16.92;86.24
21276;BME280;36472;52.170;20.884;2023-09-07T00:28:34;101401.47;;;16.90;86.57
21276;BME280;36472;52.170;20.884;2023-09-07T00:31:03;101409.97;;;16.82;86.77
21276;BME280;36472;52.170;20.884;2023-09-07T00:33:33;101402.00;;;16.82;87.02
21276;BME280;36472;52.170;20.884;2023-09-07T00:36:02;101410.19;;;16.79;87.01
21276;BME280;36472;52.170;20.884;2023-09-07T00:38:31;101405.03;;;16.77;87.41
21276;BME280;36472;52.170;20.884;2023-09-07T00:41:02;101402.09;;;16.80;87.74
21276;BME280;36472;52.170;20.884;2023-09-07T00:43:31;101403.94;;;16.80;87.73
21276;BME280;36472;52.170;20.884;2023-09-07T00:46:00;101403.19;;;16.78;87.61
21276;BME280;36472;52.170;20.884;2023-09-07T00:48:30;101400.22;;;16.82;87.71
21276;BME280;36472;52.170;20.884;2023-09-07T00:50:59;101409.13;;;16.81;87.61
21276;BME280;36472;52.170;20.884;2023-09-07T00:53:29;101394.13;;;16.69;87.62
21276;BME280;36472;52.170;20.884;2023-09-07T00:55:59;101407.41;;;16.69;87.56
21276;BME280;36472;52.170;20.884;2023-09-07T00:58:30;101413.44;;;16.71;87.60
21276;BME280;36472;52.170;20.884;2023-09-07T01:01:00;101401.13;;;16.70;87.51
21276;BME280;36472;52.170;20.884;2023-09-07T01:03:30;101407.41;;;16.69;88.15
21276;BME280;36472;52.170;20.884;2023-09-07T01:06:06;101398.56;;;16.69;87.41
21276;BME280;36472;52.170;20.884;2023-09-07T01:08:44;101396.28;;;16.64;87.12
21276;BME280;36472;52.170;20.884;2023-09-07T01:11:14;101396.00;;;16.56;87.51
21276;BME280;36472;52.170;20.884;2023-09-07T01:13:45;101396.44;;;16.50;87.78
21276;BME280;36472;52.170;20.884;2023-09-07T01:16:15;101391.91;;;16.52;87.81
21276;BME280;36472;52.170;20.884;2023-09-07T01:18:45;101398.66;;;16.56;88.10
21276;BME280;36472;52.170;20.884;2023-09-07T01:21:16;101393.34;;;16.56;87.75
21276;BME280;36472;52.170;20.884;2023-09-07T01:23:49;101388.66;;;16.59;87.91
21276;BME280;36472;52.170;20.884;2023-09-07T01:26:19;101396.22;;;16.53;87.62
21276;BME280;36472;52.170;20.884;2023-09-07T01:28:48;101401.75;;;16.50;87.80
21276;BME280;36472;52.170;20.884;2023-09-07T01:31:17;101399.97;;;16.50;87.74
21276;BME280;36472;52.170;20.884;2023-09-07T01:33:47;101402.97;;;16.45;87.34
21276;BME280;36472;52.170;20.884;2023-09-07T01:36:16;101404.41;;;16.50;87.08
21276;BME280;36472;52.170;20.884;2023-09-07T01:38:45;101395.94;;;16.44;87.71
21276;BME280;36472;52.170;20.884;2023-09-07T01:41:15;101394.28;;;16.43;87.55
21276;BME280;36472;52.170;20.884;2023-09-07T01:43:45;101398.81;;;16.41;87.46
21276;BME280;36472;52.170;20.884;2023-09-07T01:46:13;101401.72;;;16.38;87.91
21276;BME280;36472;52.170;20.884;2023-09-07T01:48:43;101400.13;;;16.36;87.81
21276;BME280;36472;52.170;20.884;2023-09-07T01:51:12;101403.41;;;16.39;88.06
21276;BME280;36472;52.170;20.884;2023-09-07T01:53:42;101403.41;;;16.39;88.04
21276;BME280;36472;52.170;20.884;2023-09-07T01:56:12;101403.50;;;16.38;87.75
21276;BME280;36472;52.170;20.884;2023-09-07T01:58:42;101412.56;;;16.35;87.34
21276;BME280;36472;52.170;20.884;2023-09-07T02:01:24;101403.25;;;16.30;87.42
21276;BME280;36472;52.170;20.884;2023-09-07T02:03:53;101412.06;;;16.30;87.92
21276;BME280;36472;52.170;20.884;2023-09-07T02:06:22;101406.22;;;16.25;87.83
21276;BME280;36472;52.170;20.884;2023-09-07T02:08:54;101410.06;;;16.21;87.85
21276;BME280;36472;52.170;20.884;2023-09-07T02:11:23;101403.81;;;16.22;87.94
21276;BME280;36472;52.170;20.884;2023-09-07T02:13:54;101404.75;;;16.21;88.07
21276;BME280;36472;52.170;20.884;2023-09-07T02:16:23;101406.22;;;16.25;88.07
21276;BME280;36472;52.170;20.884;2023-09-07T02:19:01;101410.34;;;16.29;88.03
21276;BME280;36472;52.170;20.884;2023-09-07T02:21:31;101403.47;;;16.26;88.02
21276;BME280;36472;52.170;20.884;2023-09-07T02:24:00;101401.44;;;16.30;88.09
21276;BME280;36472;52.170;20.884;2023-09-07T02:26:29;101401.78;;;16.25;88.20
21276;BME280;36472;52.170;20.884;2023-09-07T02:29:00;101408.88;;;16.25;88.75
21276;BME280;36472;52.170;20.884;2023-09-07T02:31:33;101402.00;;;16.22;88.37
21276;BME280;36472;52.170;20.884;2023-09-07T02:34:02;101410.06;;;16.21;88.58
21276;BME280;36472;52.170;20.884;2023-09-07T02:36:33;101405.25;;;16.26;88.66
21276;BME280;36472;52.170;20.884;2023-09-07T02:39:03;101411.66;;;16.23;88.85
21276;BME280;36472;52.170;20.884;2023-09-07T02:41:32;101406.06;;;16.15;88.39
21276;BME280;36472;52.170;20.884;2023-09-07T02:44:03;101413.91;;;16.17;88.14
21276;BME280;36472;52.170;20.884;2023-09-07T02:46:32;101410.53;;;16.15;88.07
21276;BME280;36472;52.170;20.884;2023-09-07T02:49:01;101410.75;;;16.12;87.92
21276;BME280;36472;52.170;20.884;2023-09-07T02:51:30;101414.47;;;16.09;88.17
21276;BME280;36472;52.170;20.884;2023-09-07T02:54:02;101417.34;;;16.06;88.36
21276;BME280;36472;52.170;20.884;2023-09-07T02:56:32;101417.13;;;16.09;87.97
21276;BME280;36472;52.170;20.884;2023-09-07T02:59:03;101422.75;;;16.04;88.18
21276;BME280;36472;52.170;20.884;2023-09-07T03:01:33;101422.13;;;16.01;87.81
21276;BME280;36472;52.170;20.884;2023-09-07T03:04:03;101419.81;;;15.96;88.01
21276;BME280;36472;52.170;20.884;2023-09-07T03:06:33;101418.97;;;15.96;87.94
21276;BME280;36472;52.170;20.884;2023-09-07T03:09:02;101420.88;;;15.94;87.92
21276;BME280;36472;52.170;20.884;2023-09-07T03:11:38;101410.13;;;15.95;87.86
21276;BME280;36472;52.170;20.884;2023-09-07T03:14:10;101422.78;;;15.92;87.50
21276;BME280;36472;52.170;20.884;2023-09-07T03:16:39;101422.66;;;15.93;87.62
21276;BME280;36472;52.170;20.884;2023-09-07T03:19:10;101429.06;;;15.91;87.43
21276;BME280;36472;52.170;20.884;2023-09-07T03:21:39;101426.72;;;15.86;87.51
21276;BME280;36472;52.170;20.884;2023-09-07T03:24:08;101428.00;;;15.80;87.73
21276;BME280;36472;52.170;20.884;2023-09-07T03:26:37;101427.38;;;15.77;87.59
21276;BME280;36472;52.170;20.884;2023-09-07T03:29:06;101428.84;;;15.81;87.41
21276;BME280;36472;52.170;20.884;2023-09-07T03:31:37;101432.69;;;15.77;87.94
21276;BME280;36472;52.170;20.884;2023-09-07T03:34:07;101433.53;;;15.77;88.33
21276;BME280;36472;52.170;20.884;2023-09-07T03:36:35;101435.09;;;15.80;88.26
21276;BME280;36472;52.170;20.884;2023-09-07T03:39:05;101435.44;;;15.75;88.65
21276;BME280;36472;52.170;20.884;2023-09-07T03:41:36;101426.41;;;15.78;88.85
21276;BME280;36472;52.170;20.884;2023-09-07T03:44:06;101425.03;;;15.72;89.04
21276;BME280;36472;52.170;20.884;2023-09-07T03:46:36;101434.66;;;15.73;89.20
21276;BME280;36472;52.170;20.884;2023-09-07T03:49:06;101434.13;;;15.68;89.31
21276;BME280;36472;52.170;20.884;2023-09-07T03:51:35;101437.94;;;15.64;89.20
21276;BME280;36472;52.170;20.884;2023-09-07T03:54:04;101439.88;;;15.62;89.37
21276;BME280;36472;52.170;20.884;2023-09-07T03:56:33;101438.06;;;15.62;89.38
21276;BME280;36472;52.170;20.884;2023-09-07T03:59:02;101439.13;;;15.60;89.38
21276;BME280;36472;52.170;20.884;2023-09-07T04:01:31;101432.97;;;15.59;88.64
21276;BME280;36472;52.170;20.884;2023-09-07T04:04:02;101434.47;;;15.63;88.90
21276;BME280;36472;52.170;20.884;2023-09-07T04:06:32;101432.34;;;15.56;88.94
21276;BME280;36472;52.170;20.884;2023-09-07T04:09:01;101433.75;;;15.61;89.19
21276;BME280;36472;52.170;20.884;2023-09-07T04:11:30;101438.91;;;15.63;88.69
21276;BME280;36472;52.170;20.884;2023-09-07T04:14:00;101441.91;;;15.58;88.52
21276;BME280;36472;52.170;20.884;2023-09-07T04:16:29;101435.97;;;15.55;88.65
21276;BME280;36472;52.170;20.884;2023-09-07T04:18:59;101444.53;;;15.58;88.46
21276;BME280;36472;52.170;20.884;2023-09-07T04:21:29;101443.81;;;15.56;89.10
21276;BME280;36472;52.170;20.884;2023-09-07T04:23:59;101438.06;;;15.62;89.71
21276;BME280;36472;52.170;20.884;2023-09-07T04:26:28;101447.28;;;15.57;89.82
21276;BME280;36472;52.170;20.884;2023-09-07T04:28:57;101453.22;;;15.60;89.57
21276;BME280;36472;52.170;20.884;2023-09-07T04:31:26;101444.53;;;15.58;89.68
21276;BME280;36472;52.170;20.884;2023-09-07T04:33:55;101441.53;;;15.63;90.05
21276;BME280;36472;52.170;20.884;2023-09-07T04:36:25;101448.75;;;15.61;89.86
21276;BME280;36472;52.170;20.884;2023-09-07T04:38:56;101447.50;;;15.66;90.24
21276;BME280;36472;52.170;20.884;2023-09-07T04:41:26;101448.03;;;15.71;90.38
21276;BME280;36472;52.170;20.884;2023-09-07T04:43:56;101454.72;;;15.77;90.31
21276;BME280;36472;52.170;20.884;2023-09-07T04:46:27;101450.78;;;15.83;90.26
21276;BME280;36472;52.170;20.884;2023-09-07T04:48:56;101451.75;;;15.82;90.57
21276;BME280;36472;52.170;20.884;2023-09-07T04:51:26;101461.06;;;15.87;90.55
21276;BME280;36472;52.170;20.884;2023-09-07T04:53:57;101459.78;;;15.93;90.40
21276;BME280;36472;52.170;20.884;2023-09-07T04:56:26;101468.47;;;15.95;90.36
21276;BME280;36472;52.170;20.884;2023-09-07T04:58:57;101466.56;;;15.97;90.34
21276;BME280;36472;52.170;20.884;2023-09-07T05:01:27;101468.97;;;16.00;90.49
21276;BME280;36472;52.170;20.884;2023-09-07T05:03:57;101457.94;;;16.06;90.44
21276;BME280;36472;52.170;20.884;2023-09-07T05:06:27;101459.56;;;16.09;90.86
21276;BME280;36472;52.170;20.884;2023-09-07T05:08:57;101482.22;;;16.13;90.82
21276;BME280;36472;52.170;20.884;2023-09-07T05:11:26;101472.25;;;16.17;90.62
21276;BME280;36472;52.170;20.884;2023-09-07T05:13:56;101486.03;;;16.22;90.89
21276;BME280;36472;52.170;20.884;2023-09-07T05:16:26;101474.97;;;16.28;90.76
21276;BME280;36472;52.170;20.884;2023-09-07T05:18:55;101473.91;;;16.31;90.79
21276;BME280;36472;52.170;20.884;2023-09-07T05:21:24;101477.91;;;16.36;90.78
21276;BME280;36472;52.170;20.884;2023-09-07T05:23:54;101477.25;;;16.45;90.62
21276;BME280;36472;52.170;20.884;2023-09-07T05:26:24;101477.66;;;16.52;90.36
21276;BME280;36472;52.170;20.884;2023-09-07T05:28:54;101478.06;;;16.59;90.09
21276;BME280;36472;52.170;20.884;2023-09-07T05:31:23;101472.28;;;16.65;90.11
21276;BME280;36472;52.170;20.884;2023-09-07T05:33:52;101474.25;;;16.74;89.83
21276;BME280;36472;52.170;20.884;2023-09-07T05:36:21;101477.84;;;16.86;89.73
21276;BME280;36472;52.170;20.884;2023-09-07T05:38:51;101479.91;;;16.94;89.70
21276;BME280;36472;52.170;20.884;2023-09-07T05:41:20;101476.31;;;16.95;89.45
21276;BME280;36472;52.170;20.884;2023-09-07T05:43:50;101489.00;;;17.02;89.64
21276;BME280;36472;52.170;20.884;2023-09-07T05:46:19;101485.88;;;17.09;89.34
21276;BME280;36472;52.170;20.884;2023-09-07T05:48:49;101493.50;;;17.13;89.10
21276;BME280;36472;52.170;20.884;2023-09-07T05:51:18;101494.63;;;17.22;88.74
21276;BME280;36472;52.170;20.884;2023-09-07T05:53:47;101498.50;;;17.29;88.95
21276;BME280;36472;52.170;20.884;2023-09-07T05:56:19;101491.63;;;17.38;88.66
21276;BME280;36472;52.170;20.884;2023-09-07T05:58:49;101496.22;;;17.47;88.35
21276;BME280;36472;52.170;20.884;2023-09-07T06:01:18;101503.75;;;17.65;88.10
21276;BME280;36472;52.170;20.884;2023-09-07T06:03:48;101500.84;;;17.79;87.41
21276;BME280;36472;52.170;20.884;2023-09-07T06:06:17;101493.88;;;17.89;86.36
21276;BME280;36472;52.170;20.884;2023-09-07T06:08:47;101500.63;;;18.05;85.45
21276;BME280;36472;52.170;20.884;2023-09-07T06:11:16;101502.81;;;18.11;85.17
21276;BME280;36472;52.170;20.884;2023-09-07T06:13:45;101506.91;;;18.15;84.71
21276;BME280;36472;52.170;20.884;2023-09-07T06:16:16;101506.69;;;18.29;84.21
21276;BME280;36472;52.170;20.884;2023-09-07T06:18:45;101509.88;;;18.44;83.79
21276;BME280;36472;52.170;20.884;2023-09-07T06:21:14;101514.72;;;18.62;83.48
21276;BME280;36472;52.170;20.884;2023-09-07T06:23:44;101509.91;;;18.77;82.94
21276;BME280;36472;52.170;20.884;2023-09-07T06:26:13;101515.25;;;18.88;82.78
21276;BME280;36472;52.170;20.884;2023-09-07T06:28:46;101520.38;;;19.01;82.37
21276;BME280;36472;52.170;20.884;2023-09-07T06:31:16;101515.84;;;19.13;82.52
21276;BME280;36472;52.170;20.884;2023-09-07T06:33:47;101511.06;;;19.28;82.06
21276;BME280;36472;52.170;20.884;2023-09-07T06:36:16;101521.38;;;19.42;81.90
21276;BME280;36472;52.170;20.884;2023-09-07T06:39:01;101519.09;;;19.58;80.95
21276;BME280;36472;52.170;20.884;2023-09-07T06:41:30;101517.69;;;19.75;80.53
21276;BME280;36472;52.170;20.884;2023-09-07T06:43:59;101516.47;;;19.89;80.34
21276;BME280;36472;52.170;20.884;2023-09-07T06:46:31;101517.94;;;20.03;79.00
21276;BME280;36472;52.170;20.884;2023-09-07T06:49:00;101516.84;;;20.15;77.78
21276;BME280;36472;52.170;20.884;2023-09-07T06:51:31;101520.25;;;20.27;77.95
21276;BME280;36472;52.170;20.884;2023-09-07T06:54:00;101522.56;;;20.42;77.55
21276;BME280;36472;52.170;20.884;2023-09-07T06:56:29;101530.59;;;20.51;77.76
21276;BME280;36472;52.170;20.884;2023-09-07T06:59:00;101525.16;;;20.72;77.25
21276;BME280;36472;52.170;20.884;2023-09-07T07:01:30;101517.41;;;20.89;75.74
21276;BME280;36472;52.170;20.884;2023-09-07T07:04:00;101528.25;;;21.07;74.81
21276;BME280;36472;52.170;20.884;2023-09-07T07:06:29;101518.13;;;21.20;74.43
21276;BME280;36472;52.170;20.884;2023-09-07T07:08:58;101521.78;;;21.29;73.65
21276;BME280;36472;52.170;20.884;2023-09-07T07:11:28;101525.69;;;21.44;73.21
21276;BME280;36472;52.170;20.884;2023-09-07T07:13:57;101526.81;;;21.61;72.30
21276;BME280;36472;52.170;20.884;2023-09-07T07:16:27;101530.53;;;21.88;71.83
21276;BME280;36472;52.170;20.884;2023-09-07T07:18:58;101539.19;;;22.00;70.30
21276;BME280;36472;52.170;20.884;2023-09-07T07:21:27;101535.09;;;22.06;70.40
21276;BME280;36472;52.170;20.884;2023-09-07T07:23:57;101532.19;;;22.17;70.64
21276;BME280;36472;52.170;20.884;2023-09-07T07:26:26;101538.34;;;22.27;70.17
21276;BME280;36472;52.170;20.884;2023-09-07T07:28:55;101538.88;;;22.40;69.67
21276;BME280;36472;52.170;20.884;2023-09-07T07:31:24;101540.81;;;22.48;69.65
21276;BME280;36472;52.170;20.884;2023-09-07T07:33:54;101542.22;;;22.70;68.89
21276;BME280;36472;52.170;20.884;2023-09-07T07:36:25;101549.16;;;22.99;68.21
21276;BME280;36472;52.170;20.884;2023-09-07T07:38:54;101542.63;;;23.11;67.71
21276;BME280;36472;52.170;20.884;2023-09-07T07:41:23;101539.16;;;23.37;67.15
21276;BME280;36472;52.170;20.884;2023-09-07T07:43:53;101544.59;;;23.53;65.96
21276;BME280;36472;52.170;20.884;2023-09-07T07:46:24;101549.63;;;23.75;65.67
21276;BME280;36472;52.170;20.884;2023-09-07T07:48:54;101548.06;;;23.90;63.88
21276;BME280;36472;52.170;20.884;2023-09-07T07:51:24;101557.41;;;24.12;63.11
21276;BME280;36472;52.170;20.884;2023-09-07T07:53:56;101555.06;;;24.25;61.20
21276;BME280;36472;52.170;20.884;2023-09-07T07:56:25;101555.81;;;24.36;61.43
21276;BME280;36472;52.170;20.884;2023-09-07T07:58:57;101559.19;;;24.46;60.34
21276;BME280;36472;52.170;20.884;2023-09-07T08:01:26;101555.16;;;24.50;60.26
21276;BME280;36472;52.170;20.884;2023-09-07T08:03:59;101564.94;;;24.59;60.15
21276;BME280;36472;52.170;20.884;2023-09-07T08:06:33;101555.41;;;24.81;61.59
21276;BME280;36472;52.170;20.884;2023-09-07T08:09:03;101556.78;;;25.10;60.23
21276;BME280;36472;52.170;20.884;2023-09-07T08:11:32;101555.66;;;25.29;57.87
21276;BME280;36472;52.170;20.884;2023-09-07T08:14:02;101553.13;;;25.44;57.29
21276;BME280;36472;52.170;20.884;2023-09-07T08:16:31;101555.25;;;25.57;56.85
21276;BME280;36472;52.170;20.884;2023-09-07T08:19:01;101561.69;;;25.56;56.48
21276;BME280;36472;52.170;20.884;2023-09-07T08:21:33;101560.28;;;25.76;56.30
21276;BME280;36472;52.170;20.884;2023-09-07T08:24:04;101552.38;;;25.83;54.90
21276;BME280;36472;52.170;20.884;2023-09-07T08:26:33;101555.03;;;25.91;55.17
21276;BME280;36472;52.170;20.884;2023-09-07T08:29:06;101550.47;;;26.08;54.42
21276;BME280;36472;52.170;20.884;2023-09-07T08:31:36;101555.59;;;26.26;54.02
21276;BME280;36472;52.170;20.884;2023-09-07T08:34:07;101557.75;;;26.31;53.55
21276;BME280;36472;52.170;20.884;2023-09-07T08:36:40;101558.72;;;26.38;54.35
21276;BME280;36472;52.170;20.884;2023-09-07T08:39:10;101556.91;;;26.62;53.68
21276;BME280;36472;52.170;20.884;2023-09-07T08:41:41;101559.00;;;26.83;52.16
21276;BME280;36472;52.170;20.884;2023-09-07T08:44:29;101549.00;;;26.68;52.12
21276;BME280;36472;52.170;20.884;2023-09-07T08:47:03;101559.53;;;26.78;53.03
21276;BME280;36472;52.170;20.884;2023-09-07T08:49:34;101556.94;;;27.08;52.11
21276;BME280;36472;52.170;20.884;2023-09-07T08:52:05;101560.50;;;27.32;51.32
21276;BME280;36472;52.170;20.884;2023-09-07T08:54:37;101553.88;;;27.34;49.86
21276;BME280;36472;52.170;20.884;2023-09-07T08:57:07;101565.53;;;27.35;50.38
21276;BME280;36472;52.170;20.884;2023-09-07T08:59:36;101557.63;;;27.48;49.94
21276;BME280;36472;52.170;20.884;2023-09-07T09:02:09;101557.09;;;27.68;49.35
21276;BME280;36472;52.170;20.884;2023-09-07T09:04:39;101552.44;;;27.76;49.32
21276;BME280;36472;52.170;20.884;2023-09-07T09:07:09;101541.38;;;27.86;48.39
21276;BME280;36472;52.170;20.884;2023-09-07T09:09:38;101557.84;;;28.06;48.67
21276;BME280;36472;52.170;20.884;2023-09-07T09:12:08;101558.69;;;28.22;48.34
21276;BME280;36472;52.170;20.884;2023-09-07T09:14:39;101563.38;;;28.49;48.62
21276;BME280;36472;52.170;20.884;2023-09-07T09:17:12;101555.94;;;28.73;47.04
21276;BME280;36472;52.170;20.884;2023-09-07T09:19:42;101555.53;;;28.91;47.28
21276;BME280;36472;52.170;20.884;2023-09-07T09:22:12;101556.81;;;29.17;45.50
21276;BME280;36472;52.170;20.884;2023-09-07T09:24:41;101558.34;;;29.54;44.69
21276;BME280;36472;52.170;20.884;2023-09-07T09:27:10;101553.06;;;29.74;43.13
21276;BME280;36472;52.170;20.884;2023-09-07T09:29:40;101553.13;;;29.81;42.85
21276;BME280;36472;52.170;20.884;2023-09-07T09:32:09;101548.69;;;30.08;43.21
21276;BME280;36472;52.170;20.884;2023-09-07T09:34:38;101552.50;;;30.27;41.50
21276;BME280;36472;52.170;20.884;2023-09-07T09:37:14;101547.69;;;30.23;42.12
21276;BME280;36472;52.170;20.884;2023-09-07T09:39:49;101550.84;;;30.33;42.75
21276;BME280;36472;52.170;20.884;2023-09-07T09:42:20;101552.59;;;30.54;40.64
21276;BME280;36472;52.170;20.884;2023-09-07T09:44:50;101544.06;;;30.57;41.16
21276;BME280;36472;52.170;20.884;2023-09-07T09:47:21;101550.13;;;30.66;40.85
21276;BME280;36472;52.170;20.884;2023-09-07T09:49:51;101545.91;;;30.43;40.78
21276;BME280;36472;52.170;20.884;2023-09-07T09:52:23;101549.81;;;30.34;41.04
21276;BME280;36472;52.170;20.884;2023-09-07T09:54:55;101535.00;;;30.30;42.25
21276;BME280;36472;52.170;20.884;2023-09-07T09:57:24;101543.22;;;30.50;41.53
21276;BME280;36472;52.170;20.884;2023-09-07T09:59:59;101549.69;;;30.55;40.61
21276;BME280;36472;52.170;20.884;2023-09-07T10:02:40;101547.16;;;30.41;41.56
21276;BME280;36472;52.170;20.884;2023-09-07T10:05:10;101545.53;;;30.11;41.39
21276;BME280;36472;52.170;20.884;2023-09-07T10:07:47;101547.91;;;29.79;42.58
21276;BME280;36472;52.170;20.884;2023-09-07T10:10:19;101541.19;;;29.40;44.17
21276;BME280;36472;52.170;20.884;2023-09-07T10:12:52;101544.66;;;29.34;43.14
21276;BME280;36472;52.170;20.884;2023-09-07T10:15:24;101542.06;;;30.24;42.88
21276;BME280;36472;52.170;20.884;2023-09-07T10:18:06;101546.03;;;30.97;40.20
21276;BME280;36472;52.170;20.884;2023-09-07T10:20:54;101552.59;;;30.47;41.30
21276;BME280;36472;52.170;20.884;2023-09-07T10:23:37;101547.28;;;29.84;42.81
21276;BME280;36472;52.170;20.884;2023-09-07T10:26:11;101547.31;;;29.27;43.17
21276;BME280;36472;52.170;20.884;2023-09-07T10:28:42;101545.22;;;29.23;44.62
21276;BME280;36472;52.170;20.884;2023-09-07T10:31:17;101549.50;;;30.09;42.41
21276;BME280;36472;52.170;20.884;2023-09-07T10:33:47;101546.59;;;30.65;41.06
21276;BME280;36472;52.170;20.884;2023-09-07T10:36:25;101545.00;;;31.18;39.38
21276;BME280;36472;52.170;20.884;2023-09-07T10:38:57;101542.03;;;31.46;39.28
21276;BME280;36472;52.170;20.884;2023-09-07T10:41:26;101539.31;;;31.66;38.65
21276;BME280;36472;52.170;20.884;2023-09-07T10:43:55;101538.47;;;31.65;37.69
21276;BME280;36472;52.170;20.884;2023-09-07T10:46:25;101539.13;;;31.27;37.53
21276;BME280;36472;52.170;20.884;2023-09-07T10:48:54;101547.06;;;31.22;38.85
21276;BME280;36472;52.170;20.884;2023-09-07T10:51:24;101538.72;;;31.30;38.20
21276;BME280;36472;52.170;20.884;2023-09-07T10:53:53;101539.34;;;31.06;37.78
21276;BME280;36472;52.170;20.884;2023-09-07T10:56:26;101542.50;;;31.09;38.62
21276;BME280;36472;52.170;20.884;2023-09-07T10:58:55;101533.88;;;31.39;38.20
21276;BME280;36472;52.170;20.884;2023-09-07T11:01:24;101538.03;;;31.75;37.61
21276;BME280;36472;52.170;20.884;2023-09-07T11:03:53;101534.41;;;32.08;37.71
21276;BME280;36472;52.170;20.884;2023-09-07T11:06:23;101529.72;;;32.54;36.19
21276;BME280;36472;52.170;20.884;2023-09-07T11:08:53;101521.16;;;33.14;35.02
21276;BME280;36472;52.170;20.884;2023-09-07T11:11:23;101532.16;;;33.26;34.23
21276;BME280;36472;52.170;20.884;2023-09-07T11:13:53;101526.84;;;33.75;33.87
21276;BME280;36472;52.170;20.884;2023-09-07T11:16:25;101530.41;;;33.57;34.06
21276;BME280;36472;52.170;20.884;2023-09-07T11:18:54;101519.94;;;33.53;34.74
21276;BME280;36472;52.170;20.884;2023-09-07T11:21:24;101530.34;;;33.20;34.37
21276;BME280;36472;52.170;20.884;2023-09-07T11:23:53;101526.78;;;32.55;35.96
21276;BME280;36472;52.170;20.884;2023-09-07T11:26:22;101518.97;;;31.82;36.89
21276;BME280;36472;52.170;20.884;2023-09-07T11:28:53;101514.66;;;31.61;37.15
21276;BME280;36472;52.170;20.884;2023-09-07T11:31:23;101517.22;;;30.95;39.56
21276;BME280;36472;52.170;20.884;2023-09-07T11:33:54;101521.34;;;30.71;39.81
21276;BME280;36472;52.170;20.884;2023-09-07T11:36:24;101513.88;;;31.00;39.41
21276;BME280;36472;52.170;20.884;2023-09-07T11:38:53;101510.13;;;31.08;37.46
21276;BME280;36472;52.170;20.884;2023-09-07T11:41:22;101513.66;;;31.22;37.02
21276;BME280;36472;52.170;20.884;2023-09-07T11:43:52;101518.06;;;31.16;35.77
21276;BME280;36472;52.170;20.884;2023-09-07T11:46:21;101506.31;;;30.75;36.09
21276;BME280;36472;52.170;20.884;2023-09-07T11:48:50;101509.25;;;30.81;36.84
21276;BME280;36472;52.170;20.884;2023-09-07T11:51:20;101514.25;;;30.77;36.67
21276;BME280;36472;52.170;20.884;2023-09-07T11:53:49;101511.94;;;30.67;36.56
21276;BME280;36472;52.170;20.884;2023-09-07T11:56:18;101502.53;;;30.50;36.63
21276;BME280;36472;52.170;20.884;2023-09-07T11:58:47;101504.75;;;30.26;37.90
21276;BME280;36472;52.170;20.884;2023-09-07T12:01:18;101512.03;;;30.19;37.29
21276;BME280;36472;52.170;20.884;2023-09-07T12:03:47;101499.38;;;29.84;38.38
21276;BME280;36472;52.170;20.884;2023-09-07T12:06:16;101510.25;;;29.91;38.34
21276;BME280;36472;52.170;20.884;2023-09-07T12:08:59;101500.09;;;29.72;40.24
21276;BME280;36472;52.170;20.884;2023-09-07T12:11:28;101502.16;;;29.63;40.09
21276;BME280;36472;52.170;20.884;2023-09-07T12:14:21;101500.41;;;29.49;40.80
21276;BME280;36472;52.170;20.884;2023-09-07T12:16:52;101502.59;;;29.32;41.72
21276;BME280;36472;52.170;20.884;2023-09-07T12:19:21;101502.69;;;29.17;41.70
21276;BME280;36472;52.170;20.884;2023-09-07T12:21:51;101507.72;;;28.98;41.08
21276;BME280;36472;52.170;20.884;2023-09-07T12:24:20;101513.41;;;28.82;41.34
21276;BME280;36472;52.170;20.884;2023-09-07T12:26:50;101499.31;;;28.65;42.54
21276;BME280;36472;52.170;20.884;2023-09-07T12:29:19;101499.31;;;28.50;42.24
21276;BME280;36472;52.170;20.884;2023-09-07T12:31:48;101498.81;;;28.40;43.36
21276;BME280;36472;52.170;20.884;2023-09-07T12:34:18;101495.56;;;28.29;43.80
21276;BME280;36472;52.170;20.884;2023-09-07T12:36:48;101496.31;;;28.23;44.14
21276;BME280;36472;52.170;20.884;2023-09-07T12:39:17;101505.47;;;28.22;45.79
21276;BME280;36472;52.170;20.884;2023-09-07T12:41:47;101488.59;;;28.20;46.51
21276;BME280;36472;52.170;20.884;2023-09-07T12:44:15;101486.75;;;28.21;44.92
21276;BME280;36472;52.170;20.884;2023-09-07T12:46:46;101485.84;;;28.13;44.96
21276;BME280;36472;52.170;20.884;2023-09-07T12:49:15;101480.19;;;28.08;43.95
21276;BME280;36472;52.170;20.884;2023-09-07T12:51:46;101490.31;;;28.06;44.38
21276;BME280;36472;52.170;20.884;2023-09-07T12:54:15;101480.91;;;28.17;44.27
21276;BME280;36472;52.170;20.884;2023-09-07T12:56:45;101482.19;;;28.21;43.12